Arbutus, Maryland
Current Conditions -  °F | °C
As of 2:54 AM on Saturday 20 Dec 2014 (Local Time) from KBWI Reporting Station
Clear Clear  
Wind Chill: 23°   Ceiling: Unl
Heat Index: 28°   Visibility: 10mi
Dew Point: 19°   Wind: 5mph
Humidity: 69%   Direction: 310°NW
Pressure: 30.25"   Gusts: NA
Location:  39.2187°N, 76.722°W
Report Text: KBWI 200754Z 31004KT 10SM CLR M02/M07 A3025 RMK AO2 SLP244 T10221072
Loading
Personal Weather Stations






























Interactive Weather Map New forecast layout! Learn more

10-Day Weather Forecast

Advertisements
Track Severe Weather on mobile